sensor_id;sensor_type;location;lat;lon;timestamp;P1;durP1;ratioP1;P2;durP2;ratioP2
9938;SDS011;5008;50.656;7.188;2023-04-25T04:02:41;7.27;;;4.83;;
9938;SDS011;5008;50.656;7.188;2023-04-25T04:05:08;10.40;;;5.40;;
9938;SDS011;5008;50.656;7.188;2023-04-25T04:07:34;7.60;;;5.10;;
9938;SDS011;5008;50.656;7.188;2023-04-25T04:10:05;6.53;;;4.43;;
9938;SDS011;5008;50.656;7.188;2023-04-25T04:12:32;8.47;;;5.10;;
9938;SDS011;5008;50.656;7.188;2023-04-25T04:14:59;8.43;;;5.03;;
9938;SDS011;5008;50.656;7.188;2023-04-25T04:17:32;7.40;;;4.80;;
9938;SDS011;5008;50.656;7.188;2023-04-25T04:20:03;7.17;;;4.90;;
9938;SDS011;5008;50.656;7.188;2023-04-25T04:22:32;7.77;;;4.60;;
9938;SDS011;5008;50.656;7.188;2023-04-25T04:25:06;10.13;;;5.50;;
9938;SDS011;5008;50.656;7.188;2023-04-25T04:27:34;10.13;;;4.93;;
9938;SDS011;5008;50.656;7.188;2023-04-25T04:30:04;8.83;;;4.97;;
9938;SDS011;5008;50.656;7.188;2023-04-25T04:32:32;9.20;;;4.93;;
9938;SDS011;5008;50.656;7.188;2023-04-25T04:35:03;7.37;;;4.77;;
9938;SDS011;5008;50.656;7.188;2023-04-25T04:37:31;9.10;;;4.73;;
9938;SDS011;5008;50.656;7.188;2023-04-25T04:39:58;10.43;;;5.30;;
9938;SDS011;5008;50.656;7.188;2023-04-25T04:42:30;7.83;;;5.10;;
9938;SDS011;5008;50.656;7.188;2023-04-25T04:44:56;11.80;;;4.83;;
9938;SDS011;5008;50.656;7.188;2023-04-25T04:47:23;7.33;;;4.57;;
9938;SDS011;5008;50.656;7.188;2023-04-25T04:49:50;10.20;;;5.67;;
9938;SDS011;5008;50.656;7.188;2023-04-25T04:52:19;9.33;;;4.83;;
9938;SDS011;5008;50.656;7.188;2023-04-25T04:54:45;8.43;;;4.40;;
9938;SDS011;5008;50.656;7.188;2023-04-25T04:57:12;9.40;;;5.17;;
9938;SDS011;5008;50.656;7.188;2023-04-25T04:59:39;10.47;;;4.53;;
9938;SDS011;5008;50.656;7.188;2023-04-25T05:02:06;6.07;;;4.33;;
9938;SDS011;5008;50.656;7.188;2023-04-25T05:04:33;9.53;;;4.90;;
9938;SDS011;5008;50.656;7.188;2023-04-25T05:07:00;7.00;;;4.50;;
9938;SDS011;5008;50.656;7.188;2023-04-25T05:09:28;10.47;;;5.03;;
9938;SDS011;5008;50.656;7.188;2023-04-25T05:11:55;8.10;;;4.63;;
9938;SDS011;5008;50.656;7.188;2023-04-25T05:14:22;7.43;;;4.53;;
9938;SDS011;5008;50.656;7.188;2023-04-25T05:16:52;7.97;;;4.93;;
9938;SDS011;5008;50.656;7.188;2023-04-25T05:19:19;8.10;;;4.77;;
9938;SDS011;5008;50.656;7.188;2023-04-25T05:21:47;8.93;;;4.97;;
9938;SDS011;5008;50.656;7.188;2023-04-25T05:24:13;8.63;;;5.10;;
9938;SDS011;5008;50.656;7.188;2023-04-25T05:26:42;10.10;;;4.63;;
9938;SDS011;5008;50.656;7.188;2023-04-25T05:29:08;8.43;;;4.97;;
9938;SDS011;5008;50.656;7.188;2023-04-25T05:31:36;8.17;;;4.73;;
9938;SDS011;5008;50.656;7.188;2023-04-25T05:34:03;7.53;;;4.50;;
9938;SDS011;5008;50.656;7.188;2023-04-25T05:36:30;9.07;;;5.03;;
9938;SDS011;5008;50.656;7.188;2023-04-25T05:38:57;8.70;;;5.03;;
9938;SDS011;5008;50.656;7.188;2023-04-25T05:41:24;9.87;;;4.80;;
9938;SDS011;5008;50.656;7.188;2023-04-25T05:44:01;8.57;;;4.30;;
9938;SDS011;5008;50.656;7.188;2023-04-25T05:46:28;8.30;;;5.00;;
9938;SDS011;5008;50.656;7.188;2023-04-25T05:48:55;9.77;;;5.03;;
9938;SDS011;5008;50.656;7.188;2023-04-25T05:51:22;7.07;;;4.80;;
9938;SDS011;5008;50.656;7.188;2023-04-25T05:53:49;9.10;;;4.80;;
9938;SDS011;5008;50.656;7.188;2023-04-25T05:56:16;8.37;;;4.63;;
9938;SDS011;5008;50.656;7.188;2023-04-25T05:58:42;11.60;;;4.63;;
9938;SDS011;5008;50.656;7.188;2023-04-25T06:01:11;12.77;;;5.60;;
9938;SDS011;5008;50.656;7.188;2023-04-25T06:03:39;8.87;;;5.60;;
9938;SDS011;5008;50.656;7.188;2023-04-25T06:06:07;9.70;;;4.87;;
9938;SDS011;5008;50.656;7.188;2023-04-25T06:08:34;10.17;;;5.13;;
9938;SDS011;5008;50.656;7.188;2023-04-25T06:11:02;6.93;;;5.00;;
9938;SDS011;5008;50.656;7.188;2023-04-25T06:13:29;10.93;;;5.73;;
9938;SDS011;5008;50.656;7.188;2023-04-25T06:15:56;11.70;;;5.40;;
9938;SDS011;5008;50.656;7.188;2023-04-25T06:18:24;9.40;;;5.30;;
9938;SDS011;5008;50.656;7.188;2023-04-25T06:20:51;14.17;;;5.57;;
9938;SDS011;5008;50.656;7.188;2023-04-25T06:23:18;13.63;;;5.63;;
9938;SDS011;5008;50.656;7.188;2023-04-25T06:25:44;11.23;;;5.87;;
9938;SDS011;5008;50.656;7.188;2023-04-25T06:28:11;10.07;;;5.47;;
9938;SDS011;5008;50.656;7.188;2023-04-25T06:30:38;10.37;;;5.40;;
9938;SDS011;5008;50.656;7.188;2023-04-25T06:33:05;12.47;;;5.47;;
9938;SDS011;5008;50.656;7.188;2023-04-25T06:35:34;11.40;;;5.30;;
9938;SDS011;5008;50.656;7.188;2023-04-25T06:38:01;11.57;;;5.90;;
9938;SDS011;5008;50.656;7.188;2023-04-25T06:40:28;12.53;;;5.73;;
9938;SDS011;5008;50.656;7.188;2023-04-25T06:42:55;12.53;;;5.50;;
9938;SDS011;5008;50.656;7.188;2023-04-25T06:45:22;10.07;;;5.80;;
9938;SDS011;5008;50.656;7.188;2023-04-25T06:47:48;11.30;;;5.60;;
9938;SDS011;5008;50.656;7.188;2023-04-25T06:50:15;8.57;;;5.00;;
9938;SDS011;5008;50.656;7.188;2023-04-25T06:52:43;10.00;;;5.97;;
9938;SDS011;5008;50.656;7.188;2023-04-25T06:55:10;10.17;;;5.60;;
9938;SDS011;5008;50.656;7.188;2023-04-25T06:57:37;7.67;;;4.90;;
9938;SDS011;5008;50.656;7.188;2023-04-25T07:00:04;11.43;;;5.27;;
9938;SDS011;5008;50.656;7.188;2023-04-25T07:02:34;14.10;;;5.33;;
9938;SDS011;5008;50.656;7.188;2023-04-25T07:05:04;9.23;;;5.13;;
9938;SDS011;5008;50.656;7.188;2023-04-25T07:07:31;6.97;;;5.53;;
9938;SDS011;5008;50.656;7.188;2023-04-25T07:09:59;9.73;;;5.63;;
9938;SDS011;5008;50.656;7.188;2023-04-25T07:12:26;12.83;;;5.57;;
9938;SDS011;5008;50.656;7.188;2023-04-25T07:14:52;8.90;;;5.20;;
9938;SDS011;5008;50.656;7.188;2023-04-25T07:17:19;9.30;;;5.43;;
9938;SDS011;5008;50.656;7.188;2023-04-25T07:19:46;8.20;;;5.00;;
9938;SDS011;5008;50.656;7.188;2023-04-25T07:22:13;12.40;;;4.90;;
9938;SDS011;5008;50.656;7.188;2023-04-25T07:24:40;11.20;;;4.33;;
9938;SDS011;5008;50.656;7.188;2023-04-25T07:27:08;9.63;;;4.20;;
9938;SDS011;5008;50.656;7.188;2023-04-25T07:29:35;8.10;;;4.60;;
9938;SDS011;5008;50.656;7.188;2023-04-25T07:32:02;7.73;;;4.30;;
9938;SDS011;5008;50.656;7.188;2023-04-25T07:34:29;9.57;;;5.27;;
9938;SDS011;5008;50.656;7.188;2023-04-25T07:36:57;11.17;;;5.77;;
9938;SDS011;5008;50.656;7.188;2023-04-25T07:39:24;10.30;;;4.87;;
9938;SDS011;5008;50.656;7.188;2023-04-25T07:41:51;8.93;;;4.37;;
9938;SDS011;5008;50.656;7.188;2023-04-25T07:44:19;8.37;;;4.37;;
9938;SDS011;5008;50.656;7.188;2023-04-25T07:46:46;8.93;;;5.47;;
9938;SDS011;5008;50.656;7.188;2023-04-25T07:49:13;11.07;;;4.67;;
9938;SDS011;5008;50.656;7.188;2023-04-25T07:51:40;12.30;;;5.30;;
9938;SDS011;5008;50.656;7.188;2023-04-25T07:54:08;7.93;;;3.93;;
9938;SDS011;5008;50.656;7.188;2023-04-25T07:56:35;11.33;;;4.47;;
9938;SDS011;5008;50.656;7.188;2023-04-25T07:59:01;7.23;;;3.87;;
9938;SDS011;5008;50.656;7.188;2023-04-25T08:01:30;7.20;;;3.90;;
9938;SDS011;5008;50.656;7.188;2023-04-25T08:03:56;8.93;;;4.00;;
9938;SDS011;5008;50.656;7.188;2023-04-25T08:06:23;9.03;;;4.13;;
9938;SDS011;5008;50.656;7.188;2023-04-25T08:08:50;10.07;;;4.07;;
9938;SDS011;5008;50.656;7.188;2023-04-25T08:11:17;7.43;;;4.13;;
9938;SDS011;5008;50.656;7.188;2023-04-25T08:13:44;7.43;;;3.40;;
9938;SDS011;5008;50.656;7.188;2023-04-25T08:16:11;5.67;;;3.20;;
9938;SDS011;5008;50.656;7.188;2023-04-25T08:18:39;7.63;;;3.13;;
9938;SDS011;5008;50.656;7.188;2023-04-25T08:21:06;6.30;;;3.17;;
9938;SDS011;5008;50.656;7.188;2023-04-25T08:23:33;6.07;;;3.10;;
9938;SDS011;5008;50.656;7.188;2023-04-25T08:26:00;6.50;;;2.93;;
9938;SDS011;5008;50.656;7.188;2023-04-25T08:28:28;7.50;;;3.17;;
9938;SDS011;5008;50.656;7.188;2023-04-25T08:30:55;7.37;;;2.80;;
9938;SDS011;5008;50.656;7.188;2023-04-25T08:33:22;5.90;;;3.00;;
9938;SDS011;5008;50.656;7.188;2023-04-25T08:35:51;8.37;;;2.97;;
9938;SDS011;5008;50.656;7.188;2023-04-25T08:38:18;6.00;;;2.93;;
9938;SDS011;5008;50.656;7.188;2023-04-25T08:40:46;8.07;;;3.57;;
9938;SDS011;5008;50.656;7.188;2023-04-25T08:43:16;5.30;;;3.07;;
9938;SDS011;5008;50.656;7.188;2023-04-25T08:45:45;7.30;;;2.87;;
9938;SDS011;5008;50.656;7.188;2023-04-25T08:48:13;8.53;;;2.93;;
9938;SDS011;5008;50.656;7.188;2023-04-25T08:50:43;5.20;;;2.80;;
9938;SDS011;5008;50.656;7.188;2023-04-25T08:53:15;6.43;;;2.93;;
9938;SDS011;5008;50.656;7.188;2023-04-25T08:55:45;3.90;;;2.47;;
9938;SDS011;5008;50.656;7.188;2023-04-25T08:58:12;6.70;;;2.87;;
9938;SDS011;5008;50.656;7.188;2023-04-25T09:00:39;7.10;;;2.60;;
9938;SDS011;5008;50.656;7.188;2023-04-25T09:03:06;6.10;;;3.10;;
9938;SDS011;5008;50.656;7.188;2023-04-25T09:05:33;6.13;;;2.43;;
9938;SDS011;5008;50.656;7.188;2023-04-25T09:08:00;7.43;;;3.17;;
9938;SDS011;5008;50.656;7.188;2023-04-25T09:10:29;5.30;;;2.67;;
9938;SDS011;5008;50.656;7.188;2023-04-25T09:13:03;6.97;;;2.40;;
9938;SDS011;5008;50.656;7.188;2023-04-25T09:15:31;7.27;;;2.77;;
9938;SDS011;5008;50.656;7.188;2023-04-25T09:17:59;4.67;;;2.70;;
9938;SDS011;5008;50.656;7.188;2023-04-25T09:20:26;6.30;;;2.70;;
9938;SDS011;5008;50.656;7.188;2023-04-25T09:23:02;5.20;;;2.63;;
9938;SDS011;5008;50.656;7.188;2023-04-25T09:25:35;7.47;;;2.53;;
9938;SDS011;5008;50.656;7.188;2023-04-25T09:28:04;6.23;;;2.70;;
9938;SDS011;5008;50.656;7.188;2023-04-25T09:30:32;3.73;;;2.50;;
9938;SDS011;5008;50.656;7.188;2023-04-25T09:33:03;4.57;;;2.57;;
9938;SDS011;5008;50.656;7.188;2023-04-25T09:35:35;6.17;;;2.23;;
9938;SDS011;5008;50.656;7.188;2023-04-25T09:38:06;4.03;;;2.17;;
9938;SDS011;5008;50.656;7.188;2023-04-25T09:40:39;4.43;;;2.30;;
9938;SDS011;5008;50.656;7.188;2023-04-25T09:43:10;4.27;;;2.00;;
9938;SDS011;5008;50.656;7.188;2023-04-25T09:45:44;8.00;;;2.30;;
9938;SDS011;5008;50.656;7.188;2023-04-25T09:48:12;4.00;;;2.27;;
9938;SDS011;5008;50.656;7.188;2023-04-25T09:50:44;4.50;;;1.93;;
9938;SDS011;5008;50.656;7.188;2023-04-25T09:53:10;4.20;;;2.00;;
9938;SDS011;5008;50.656;7.188;2023-04-25T09:55:37;4.63;;;2.20;;
9938;SDS011;5008;50.656;7.188;2023-04-25T09:58:05;4.60;;;2.53;;
9938;SDS011;5008;50.656;7.188;2023-04-25T10:00:34;3.37;;;2.20;;
9938;SDS011;5008;50.656;7.188;2023-04-25T10:03:01;4.87;;;2.47;;
9938;SDS011;5008;50.656;7.188;2023-04-25T10:05:30;5.33;;;2.40;;
9938;SDS011;5008;50.656;7.188;2023-04-25T10:08:02;5.47;;;2.63;;
9938;SDS011;5008;50.656;7.188;2023-04-25T10:10:29;3.87;;;2.27;;
9938;SDS011;5008;50.656;7.188;2023-04-25T10:13:03;4.83;;;2.53;;
9938;SDS011;5008;50.656;7.188;2023-04-25T10:15:31;4.50;;;2.43;;
9938;SDS011;5008;50.656;7.188;2023-04-25T10:18:01;3.67;;;2.50;;
9938;SDS011;5008;50.656;7.188;2023-04-25T10:20:28;4.50;;;2.50;;
9938;SDS011;5008;50.656;7.188;2023-04-25T10:22:57;5.60;;;2.77;;
9938;SDS011;5008;50.656;7.188;2023-04-25T10:25:33;5.80;;;2.93;;
9938;SDS011;5008;50.656;7.188;2023-04-25T10:28:00;5.83;;;3.23;;
9938;SDS011;5008;50.656;7.188;2023-04-25T10:30:29;5.50;;;2.87;;
9938;SDS011;5008;50.656;7.188;2023-04-25T10:32:56;3.03;;;2.70;;
9938;SDS011;5008;50.656;7.188;2023-04-25T10:35:25;4.20;;;2.67;;
9938;SDS011;5008;50.656;7.188;2023-04-25T10:37:56;5.97;;;2.63;;
9938;SDS011;5008;50.656;7.188;2023-04-25T10:40:24;3.80;;;2.20;;
9938;SDS011;5008;50.656;7.188;2023-04-25T10:42:51;5.63;;;2.60;;
9938;SDS011;5008;50.656;7.188;2023-04-25T10:45:18;6.63;;;2.77;;
9938;SDS011;5008;50.656;7.188;2023-04-25T10:47:47;4.87;;;2.43;;
9938;SDS011;5008;50.656;7.188;2023-04-25T10:50:14;5.33;;;2.00;;
9938;SDS011;5008;50.656;7.188;2023-04-25T10:52:42;5.20;;;2.20;;
9938;SDS011;5008;50.656;7.188;2023-04-25T10:55:09;3.47;;;2.20;;
9938;SDS011;5008;50.656;7.188;2023-04-25T10:57:36;3.53;;;1.83;;
9938;SDS011;5008;50.656;7.188;2023-04-25T11:00:06;4.23;;;2.10;;
9938;SDS011;5008;50.656;7.188;2023-04-25T11:02:42;2.70;;;2.20;;
9938;SDS011;5008;50.656;7.188;2023-04-25T11:05:17;4.00;;;2.20;;
9938;SDS011;5008;50.656;7.188;2023-04-25T11:07:52;3.83;;;2.53;;
9938;SDS011;5008;50.656;7.188;2023-04-25T11:10:24;5.03;;;2.67;;
9938;SDS011;5008;50.656;7.188;2023-04-25T11:12:52;5.17;;;2.23;;
9938;SDS011;5008;50.656;7.188;2023-04-25T11:15:19;6.23;;;2.47;;
9938;SDS011;5008;50.656;7.188;2023-04-25T11:17:46;4.90;;;2.50;;
9938;SDS011;5008;50.656;7.188;2023-04-25T11:20:13;5.33;;;2.80;;
9938;SDS011;5008;50.656;7.188;2023-04-25T11:22:42;6.37;;;2.70;;
9938;SDS011;5008;50.656;7.188;2023-04-25T11:25:11;4.40;;;2.67;;
9938;SDS011;5008;50.656;7.188;2023-04-25T11:27:49;6.33;;;2.40;;
9938;SDS011;5008;50.656;7.188;2023-04-25T11:30:16;6.10;;;2.60;;
9938;SDS011;5008;50.656;7.188;2023-04-25T11:32:44;6.53;;;3.00;;
9938;SDS011;5008;50.656;7.188;2023-04-25T11:35:11;4.30;;;2.90;;
9938;SDS011;5008;50.656;7.188;2023-04-25T11:37:38;4.40;;;2.30;;
9938;SDS011;5008;50.656;7.188;2023-04-25T11:40:07;5.63;;;2.30;;
9938;SDS011;5008;50.656;7.188;2023-04-25T11:42:36;5.80;;;2.60;;
9938;SDS011;5008;50.656;7.188;2023-04-25T11:45:04;6.70;;;2.30;;
9938;SDS011;5008;50.656;7.188;2023-04-25T11:47:33;5.37;;;2.37;;
9938;SDS011;5008;50.656;7.188;2023-04-25T11:50:00;4.97;;;2.37;;
9938;SDS011;5008;50.656;7.188;2023-04-25T11:52:35;3.87;;;2.43;;
9938;SDS011;5008;50.656;7.188;2023-04-25T11:55:03;4.97;;;2.30;;
9938;SDS011;5008;50.656;7.188;2023-04-25T11:57:33;5.97;;;2.50;;
9938;SDS011;5008;50.656;7.188;2023-04-25T12:00:05;5.70;;;2.10;;
9938;SDS011;5008;50.656;7.188;2023-04-25T12:02:40;7.20;;;2.70;;
9938;SDS011;5008;50.656;7.188;2023-04-25T12:05:07;5.40;;;2.90;;
9938;SDS011;5008;50.656;7.188;2023-04-25T12:07:35;4.73;;;2.33;;
9938;SDS011;5008;50.656;7.188;2023-04-25T12:10:07;5.97;;;2.87;;
9938;SDS011;5008;50.656;7.188;2023-04-25T12:12:36;4.63;;;2.57;;
9938;SDS011;5008;50.656;7.188;2023-04-25T12:15:10;4.13;;;2.47;;
9938;SDS011;5008;50.656;7.188;2023-04-25T12:17:40;3.87;;;2.70;;
9938;SDS011;5008;50.656;7.188;2023-04-25T12:20:09;5.67;;;2.33;;
9938;SDS011;5008;50.656;7.188;2023-04-25T12:22:39;3.20;;;2.20;;
9938;SDS011;5008;50.656;7.188;2023-04-25T12:25:11;3.83;;;2.70;;
9938;SDS011;5008;50.656;7.188;2023-04-25T12:27:38;4.53;;;2.90;;
9938;SDS011;5008;50.656;7.188;2023-04-25T12:30:07;2.87;;;2.17;;
9938;SDS011;5008;50.656;7.188;2023-04-25T12:32:35;4.47;;;2.40;;
9938;SDS011;5008;50.656;7.188;2023-04-25T12:35:02;3.37;;;2.40;;
9938;SDS011;5008;50.656;7.188;2023-04-25T12:37:29;3.20;;;1.93;;
9938;SDS011;5008;50.656;7.188;2023-04-25T12:39:57;7.13;;;2.43;;
9938;SDS011;5008;50.656;7.188;2023-04-25T12:42:25;4.07;;;1.80;;
9938;SDS011;5008;50.656;7.188;2023-04-25T12:44:52;3.70;;;2.00;;
9938;SDS011;5008;50.656;7.188;2023-04-25T12:47:18;3.27;;;1.90;;
9938;SDS011;5008;50.656;7.188;2023-04-25T12:49:45;3.63;;;1.90;;
9938;SDS011;5008;50.656;7.188;2023-04-25T12:52:12;5.90;;;2.10;;
9938;SDS011;5008;50.656;7.188;2023-04-25T12:54:39;3.80;;;2.07;;
9938;SDS011;5008;50.656;7.188;2023-04-25T12:57:06;3.47;;;2.00;;
9938;SDS011;5008;50.656;7.188;2023-04-25T12:59:34;3.27;;;1.87;;
9938;SDS011;5008;50.656;7.188;2023-04-25T13:02:01;3.83;;;2.10;;
9938;SDS011;5008;50.656;7.188;2023-04-25T13:04:27;3.83;;;2.00;;
9938;SDS011;5008;50.656;7.188;2023-04-25T13:06:54;3.03;;;1.90;;
9938;SDS011;5008;50.656;7.188;2023-04-25T13:09:21;4.53;;;2.23;;
9938;SDS011;5008;50.656;7.188;2023-04-25T13:11:48;3.40;;;2.00;;
9938;SDS011;5008;50.656;7.188;2023-04-25T13:14:15;3.28;;;1.80;;
9938;SDS011;5008;50.656;7.188;2023-04-25T13:16:43;2.95;;;2.00;;
9938;SDS011;5008;50.656;7.188;2023-04-25T13:19:10;3.78;;;2.22;;
9938;SDS011;5008;50.656;7.188;2023-04-25T13:21:37;4.65;;;2.40;;
9938;SDS011;5008;50.656;7.188;2023-04-25T13:24:04;3.35;;;2.17;;
9938;SDS011;5008;50.656;7.188;2023-04-25T13:26:31;3.28;;;1.98;;
9938;SDS011;5008;50.656;7.188;2023-04-25T13:28:58;3.35;;;2.00;;
9938;SDS011;5008;50.656;7.188;2023-04-25T13:31:27;2.78;;;2.03;;
9938;SDS011;5008;50.656;7.188;2023-04-25T13:33:56;3.35;;;2.20;;
9938;SDS011;5008;50.656;7.188;2023-04-25T13:36:23;2.92;;;1.95;;
9938;SDS011;5008;50.656;7.188;2023-04-25T13:38:50;4.20;;;2.17;;
9938;SDS011;5008;50.656;7.188;2023-04-25T13:41:17;3.22;;;1.98;;
9938;SDS011;5008;50.656;7.188;2023-04-25T13:43:45;2.30;;;2.10;;
9938;SDS011;5008;50.656;7.188;2023-04-25T13:46:12;2.58;;;1.80;;
9938;SDS011;5008;50.656;7.188;2023-04-25T13:48:40;3.70;;;2.17;;
9938;SDS011;5008;50.656;7.188;2023-04-25T13:51:12;4.03;;;2.22;;
9938;SDS011;5008;50.656;7.188;2023-04-25T13:53:40;4.28;;;2.28;;
9938;SDS011;5008;50.656;7.188;2023-04-25T13:56:07;5.78;;;2.70;;
9938;SDS011;5008;50.656;7.188;2023-04-25T13:58:34;3.70;;;2.30;;
9938;SDS011;5008;50.656;7.188;2023-04-25T14:01:01;3.40;;;2.28;;
9938;SDS011;5008;50.656;7.188;2023-04-25T14:03:28;3.53;;;1.90;;
9938;SDS011;5008;50.656;7.188;2023-04-25T14:05:55;3.90;;;1.90;;
9938;SDS011;5008;50.656;7.188;2023-04-25T14:08:23;3.00;;;2.03;;
9938;SDS011;5008;50.656;7.188;2023-04-25T14:10:50;5.53;;;1.83;;
9938;SDS011;5008;50.656;7.188;2023-04-25T14:13:16;4.33;;;2.10;;
9938;SDS011;5008;50.656;7.188;2023-04-25T14:15:43;3.50;;;2.70;;
9938;SDS011;5008;50.656;7.188;2023-04-25T14:18:10;3.87;;;2.00;;
9938;SDS011;5008;50.656;7.188;2023-04-25T14:20:37;3.13;;;1.80;;
9938;SDS011;5008;50.656;7.188;2023-04-25T14:23:03;2.57;;;1.77;;
9938;SDS011;5008;50.656;7.188;2023-04-25T14:25:32;5.30;;;2.07;;
9938;SDS011;5008;50.656;7.188;2023-04-25T14:27:58;4.37;;;2.00;;
9938;SDS011;5008;50.656;7.188;2023-04-25T14:30:26;3.27;;;2.40;;
9938;SDS011;5008;50.656;7.188;2023-04-25T14:32:53;2.37;;;1.90;;
9938;SDS011;5008;50.656;7.188;2023-04-25T14:35:20;5.30;;;2.03;;
9938;SDS011;5008;50.656;7.188;2023-04-25T14:37:47;2.63;;;1.90;;
9938;SDS011;5008;50.656;7.188;2023-04-25T14:40:14;3.37;;;2.00;;
9938;SDS011;5008;50.656;7.188;2023-04-25T14:42:43;3.37;;;2.10;;
9938;SDS011;5008;50.656;7.188;2023-04-25T14:45:11;3.50;;;2.17;;
9938;SDS011;5008;50.656;7.188;2023-04-25T14:47:38;3.27;;;2.00;;
9938;SDS011;5008;50.656;7.188;2023-04-25T14:50:05;3.27;;;2.10;;
9938;SDS011;5008;50.656;7.188;2023-04-25T14:52:33;3.03;;;1.90;;
9938;SDS011;5008;50.656;7.188;2023-04-25T14:55:00;3.53;;;1.73;;
9938;SDS011;5008;50.656;7.188;2023-04-25T14:57:29;4.07;;;1.80;;
9938;SDS011;5008;50.656;7.188;2023-04-25T14:59:58;2.80;;;2.10;;
9938;SDS011;5008;50.656;7.188;2023-04-25T15:02:25;4.13;;;1.90;;
9938;SDS011;5008;50.656;7.188;2023-04-25T15:04:52;2.60;;;1.80;;
9938;SDS011;5008;50.656;7.188;2023-04-25T15:07:20;4.03;;;1.70;;
9938;SDS011;5008;50.656;7.188;2023-04-25T15:09:47;3.10;;;1.90;;
9938;SDS011;5008;50.656;7.188;2023-04-25T15:12:14;2.47;;;1.73;;
9938;SDS011;5008;50.656;7.188;2023-04-25T15:14:41;4.00;;;2.25;;
9938;SDS011;5008;50.656;7.188;2023-04-25T15:17:09;4.38;;;1.73;;
9938;SDS011;5008;50.656;7.188;2023-04-25T15:19:38;3.55;;;1.77;;
9938;SDS011;5008;50.656;7.188;2023-04-25T15:22:05;2.75;;;2.00;;
9938;SDS011;5008;50.656;7.188;2023-04-25T15:24:32;3.08;;;1.85;;
9938;SDS011;5008;50.656;7.188;2023-04-25T15:26:58;3.53;;;1.90;;
9938;SDS011;5008;50.656;7.188;2023-04-25T15:29:25;3.80;;;1.93;;
9938;SDS011;5008;50.656;7.188;2023-04-25T15:31:53;3.45;;;1.70;;
9938;SDS011;5008;50.656;7.188;2023-04-25T15:34:21;3.00;;;1.75;;
9938;SDS011;5008;50.656;7.188;2023-04-25T15:36:48;2.00;;;1.60;;
9938;SDS011;5008;50.656;7.188;2023-04-25T15:39:15;2.87;;;1.60;;
9938;SDS011;5008;50.656;7.188;2023-04-25T15:41:42;2.50;;;1.53;;
9938;SDS011;5008;50.656;7.188;2023-04-25T15:44:09;2.53;;;1.33;;
9938;SDS011;5008;50.656;7.188;2023-04-25T15:46:35;3.03;;;1.60;;
9938;SDS011;5008;50.656;7.188;2023-04-25T15:49:02;1.90;;;1.27;;
9938;SDS011;5008;50.656;7.188;2023-04-25T15:51:30;2.80;;;1.42;;
9938;SDS011;5008;50.656;7.188;2023-04-25T15:53:57;2.33;;;1.17;;
9938;SDS011;5008;50.656;7.188;2023-04-25T15:56:26;3.13;;;1.47;;
9938;SDS011;5008;50.656;7.188;2023-04-25T15:58:53;1.42;;;1.30;;
9938;SDS011;5008;50.656;7.188;2023-04-25T16:01:19;2.50;;;1.80;;
9938;SDS011;5008;50.656;7.188;2023-04-25T16:03:48;2.28;;;1.40;;
9938;SDS011;5008;50.656;7.188;2023-04-25T16:06:15;2.15;;;1.45;;
9938;SDS011;5008;50.656;7.188;2023-04-25T16:08:43;3.07;;;1.20;;
9938;SDS011;5008;50.656;7.188;2023-04-25T16:11:10;2.40;;;1.27;;
9938;SDS011;5008;50.656;7.188;2023-04-25T16:13:38;1.53;;;1.30;;
9938;SDS011;5008;50.656;7.188;2023-04-25T16:16:05;1.80;;;1.30;;
9938;SDS011;5008;50.656;7.188;2023-04-25T16:18:32;2.47;;;1.33;;
9938;SDS011;5008;50.656;7.188;2023-04-25T16:20:59;2.47;;;1.40;;
9938;SDS011;5008;50.656;7.188;2023-04-25T16:23:26;1.87;;;1.60;;
9938;SDS011;5008;50.656;7.188;2023-04-25T16:25:54;2.50;;;1.50;;
9938;SDS011;5008;50.656;7.188;2023-04-25T16:28:21;4.83;;;1.90;;
9938;SDS011;5008;50.656;7.188;2023-04-25T16:30:48;2.37;;;1.40;;
9938;SDS011;5008;50.656;7.188;2023-04-25T16:33:15;4.93;;;1.93;;
9938;SDS011;5008;50.656;7.188;2023-04-25T16:35:42;2.37;;;1.70;;
9938;SDS011;5008;50.656;7.188;2023-04-25T16:38:09;1.77;;;1.40;;
9938;SDS011;5008;50.656;7.188;2023-04-25T16:40:36;2.00;;;1.40;;
9938;SDS011;5008;50.656;7.188;2023-04-25T16:43:04;3.40;;;1.57;;
9938;SDS011;5008;50.656;7.188;2023-04-25T16:45:31;2.37;;;1.50;;
9938;SDS011;5008;50.656;7.188;2023-04-25T16:47:58;2.17;;;1.60;;
9938;SDS011;5008;50.656;7.188;2023-04-25T16:50:25;2.73;;;1.57;;
9938;SDS011;5008;50.656;7.188;2023-04-25T16:52:52;7.53;;;1.80;;
9938;SDS011;5008;50.656;7.188;2023-04-25T16:55:19;3.17;;;1.70;;
9938;SDS011;5008;50.656;7.188;2023-04-25T16:57:46;3.37;;;1.90;;
9938;SDS011;5008;50.656;7.188;2023-04-25T17:00:15;2.30;;;1.50;;
9938;SDS011;5008;50.656;7.188;2023-04-25T17:02:43;5.03;;;2.10;;
9938;SDS011;5008;50.656;7.188;2023-04-25T17:05:10;4.93;;;1.80;;
9938;SDS011;5008;50.656;7.188;2023-04-25T17:07:37;2.90;;;1.80;;
9938;SDS011;5008;50.656;7.188;2023-04-25T17:10:04;3.30;;;1.73;;
9938;SDS011;5008;50.656;7.188;2023-04-25T17:12:31;2.70;;;1.50;;
9938;SDS011;5008;50.656;7.188;2023-04-25T17:14:58;3.97;;;1.63;;
9938;SDS011;5008;50.656;7.188;2023-04-25T17:17:27;4.40;;;2.07;;
9938;SDS011;5008;50.656;7.188;2023-04-25T17:19:57;2.77;;;1.90;;
9938;SDS011;5008;50.656;7.188;2023-04-25T17:22:24;2.77;;;1.40;;
9938;SDS011;5008;50.656;7.188;2023-04-25T17:24:51;4.70;;;1.57;;
9938;SDS011;5008;50.656;7.188;2023-04-25T17:27:18;2.87;;;1.47;;
9938;SDS011;5008;50.656;7.188;2023-04-25T17:29:48;3.33;;;1.30;;
9938;SDS011;5008;50.656;7.188;2023-04-25T17:32:15;2.53;;;1.83;;
9938;SDS011;5008;50.656;7.188;2023-04-25T17:34:43;2.53;;;1.47;;
9938;SDS011;5008;50.656;7.188;2023-04-25T17:37:10;2.23;;;1.50;;
9938;SDS011;5008;50.656;7.188;2023-04-25T17:39:40;2.53;;;1.40;;
9938;SDS011;5008;50.656;7.188;2023-04-25T17:42:08;2.57;;;1.23;;
9938;SDS011;5008;50.656;7.188;2023-04-25T17:44:36;3.07;;;1.60;;
9938;SDS011;5008;50.656;7.188;2023-04-25T17:47:03;3.43;;;1.60;;
9938;SDS011;5008;50.656;7.188;2023-04-25T17:49:30;3.10;;;1.70;;
9938;SDS011;5008;50.656;7.188;2023-04-25T17:51:59;2.10;;;1.30;;
9938;SDS011;5008;50.656;7.188;2023-04-25T17:54:26;3.27;;;1.40;;
9938;SDS011;5008;50.656;7.188;2023-04-25T17:56:54;2.73;;;1.63;;
9938;SDS011;5008;50.656;7.188;2023-04-25T17:59:21;4.03;;;1.90;;
9938;SDS011;5008;50.656;7.188;2023-04-25T18:01:48;2.10;;;1.50;;
9938;SDS011;5008;50.656;7.188;2023-04-25T18:04:18;3.03;;;1.50;;
9938;SDS011;5008;50.656;7.188;2023-04-25T18:06:45;4.37;;;1.80;;
9938;SDS011;5008;50.656;7.188;2023-04-25T18:09:14;3.33;;;1.80;;
9938;SDS011;5008;50.656;7.188;2023-04-25T18:11:41;2.30;;;1.73;;
9938;SDS011;5008;50.656;7.188;2023-04-25T18:14:09;4.10;;;2.37;;
9938;SDS011;5008;50.656;7.188;2023-04-25T18:16:38;3.30;;;1.90;;
9938;SDS011;5008;50.656;7.188;2023-04-25T18:19:06;2.47;;;1.80;;
9938;SDS011;5008;50.656;7.188;2023-04-25T18:21:35;3.67;;;2.23;;
9938;SDS011;5008;50.656;7.188;2023-04-25T18:24:03;2.10;;;1.60;;
9938;SDS011;5008;50.656;7.188;2023-04-25T18:26:31;3.80;;;1.83;;
9938;SDS011;5008;50.656;7.188;2023-04-25T18:28:58;4.33;;;1.90;;
9938;SDS011;5008;50.656;7.188;2023-04-25T18:31:25;1.93;;;1.70;;
9938;SDS011;5008;50.656;7.188;2023-04-25T18:33:53;4.53;;;1.93;;
9938;SDS011;5008;50.656;7.188;2023-04-25T18:36:21;2.00;;;1.53;;
9938;SDS011;5008;50.656;7.188;2023-04-25T18:38:47;2.33;;;1.63;;
9938;SDS011;5008;50.656;7.188;2023-04-25T18:41:19;2.70;;;1.70;;
9938;SDS011;5008;50.656;7.188;2023-04-25T18:43:48;2.00;;;1.80;;
9938;SDS011;5008;50.656;7.188;2023-04-25T18:46:14;4.23;;;1.77;;
9938;SDS011;5008;50.656;7.188;2023-04-25T18:48:41;3.67;;;2.03;;
9938;SDS011;5008;50.656;7.188;2023-04-25T18:51:08;3.80;;;2.30;;
9938;SDS011;5008;50.656;7.188;2023-04-25T18:53:35;3.70;;;2.50;;
9938;SDS011;5008;50.656;7.188;2023-04-25T18:56:03;2.67;;;2.47;;
9938;SDS011;5008;50.656;7.188;2023-04-25T18:58:30;3.33;;;2.03;;
9938;SDS011;5008;50.656;7.188;2023-04-25T19:00:58;2.90;;;1.63;;
9938;SDS011;5008;50.656;7.188;2023-04-25T19:03:25;2.83;;;1.80;;
9938;SDS011;5008;50.656;7.188;2023-04-25T19:05:52;2.83;;;1.77;;
9938;SDS011;5008;50.656;7.188;2023-04-25T19:08:19;3.30;;;2.13;;
9938;SDS011;5008;50.656;7.188;2023-04-25T19:10:47;3.70;;;1.70;;
9938;SDS011;5008;50.656;7.188;2023-04-25T19:13:13;3.40;;;1.60;;
9938;SDS011;5008;50.656;7.188;2023-04-25T19:15:40;3.87;;;1.60;;
9938;SDS011;5008;50.656;7.188;2023-04-25T19:18:09;3.00;;;1.77;;
9938;SDS011;5008;50.656;7.188;2023-04-25T19:20:36;3.77;;;1.83;;